sensor_id;sensor_type;location;lat;lon;timestamp;P1;durP1;ratioP1;P2;durP2;ratioP2
61903;SDS011;47857;52.270;6.804;2023-04-01T00:00:51;7.07;;;2.00;;
61903;SDS011;47857;52.270;6.804;2023-04-01T00:03:17;5.30;;;1.63;;
61903;SDS011;47857;52.270;6.804;2023-04-01T00:05:44;5.15;;;1.60;;
61903;SDS011;47857;52.270;6.804;2023-04-01T00:08:10;6.53;;;1.70;;
61903;SDS011;47857;52.270;6.804;2023-04-01T00:10:36;5.28;;;1.42;;
61903;SDS011;47857;52.270;6.804;2023-04-01T00:13:01;5.68;;;1.83;;
61903;SDS011;47857;52.270;6.804;2023-04-01T00:15:27;6.63;;;1.70;;
61903;SDS011;47857;52.270;6.804;2023-04-01T00:17:53;5.95;;;1.75;;
61903;SDS011;47857;52.270;6.804;2023-04-01T00:20:19;6.43;;;1.73;;
61903;SDS011;47857;52.270;6.804;2023-04-01T00:22:45;7.35;;;1.95;;
61903;SDS011;47857;52.270;6.804;2023-04-01T00:25:10;6.00;;;1.90;;
61903;SDS011;47857;52.270;6.804;2023-04-01T00:27:36;5.28;;;1.77;;
61903;SDS011;47857;52.270;6.804;2023-04-01T00:30:02;5.15;;;1.90;;
61903;SDS011;47857;52.270;6.804;2023-04-01T00:32:28;5.00;;;1.90;;
61903;SDS011;47857;52.270;6.804;2023-04-01T00:34:54;7.82;;;2.00;;
61903;SDS011;47857;52.270;6.804;2023-04-01T00:37:20;5.30;;;1.70;;
61903;SDS011;47857;52.270;6.804;2023-04-01T00:39:46;4.05;;;1.80;;
61903;SDS011;47857;52.270;6.804;2023-04-01T00:42:12;6.18;;;2.00;;
61903;SDS011;47857;52.270;6.804;2023-04-01T00:44:39;6.20;;;2.00;;
61903;SDS011;47857;52.270;6.804;2023-04-01T00:47:05;4.60;;;1.70;;
61903;SDS011;47857;52.270;6.804;2023-04-01T00:49:35;4.45;;;1.77;;
61903;SDS011;47857;52.270;6.804;2023-04-01T00:52:02;6.60;;;2.00;;
61903;SDS011;47857;52.270;6.804;2023-04-01T00:54:30;5.10;;;1.60;;
61903;SDS011;47857;52.270;6.804;2023-04-01T00:57:00;8.68;;;2.75;;
61903;SDS011;47857;52.270;6.804;2023-04-01T00:59:30;4.90;;;1.73;;
61903;SDS011;47857;52.270;6.804;2023-04-01T01:01:59;5.07;;;2.00;;
61903;SDS011;47857;52.270;6.804;2023-04-01T01:04:30;4.93;;;1.85;;
61903;SDS011;47857;52.270;6.804;2023-04-01T01:09:30;4.78;;;1.63;;
61903;SDS011;47857;52.270;6.804;2023-04-01T01:36:50;4.22;;;1.98;;
61903;SDS011;47857;52.270;6.804;2023-04-01T01:39:22;4.22;;;1.60;;
61903;SDS011;47857;52.270;6.804;2023-04-01T01:41:58;3.37;;;1.70;;
61903;SDS011;47857;52.270;6.804;2023-04-01T01:44:27;4.38;;;1.92;;
61903;SDS011;47857;52.270;6.804;2023-04-01T01:46:54;7.72;;;2.10;;
61903;SDS011;47857;52.270;6.804;2023-04-01T01:49:21;3.80;;;1.90;;
61903;SDS011;47857;52.270;6.804;2023-04-01T01:51:47;2.95;;;1.80;;
61903;SDS011;47857;52.270;6.804;2023-04-01T01:54:14;2.67;;;1.83;;
61903;SDS011;47857;52.270;6.804;2023-04-01T01:56:41;5.30;;;1.90;;
61903;SDS011;47857;52.270;6.804;2023-04-01T01:59:08;4.32;;;2.20;;
61903;SDS011;47857;52.270;6.804;2023-04-01T02:01:37;7.13;;;2.55;;
61903;SDS011;47857;52.270;6.804;2023-04-01T02:04:10;6.22;;;2.80;;
61903;SDS011;47857;52.270;6.804;2023-04-01T02:06:37;5.43;;;3.20;;
61903;SDS011;47857;52.270;6.804;2023-04-01T02:09:07;4.53;;;2.70;;
61903;SDS011;47857;52.270;6.804;2023-04-01T02:11:57;5.85;;;2.83;;
61903;SDS011;47857;52.270;6.804;2023-04-01T02:14:23;5.63;;;3.10;;
61903;SDS011;47857;52.270;6.804;2023-04-01T02:16:53;3.95;;;2.70;;
61903;SDS011;47857;52.270;6.804;2023-04-01T02:19:25;3.03;;;2.60;;
61903;SDS011;47857;52.270;6.804;2023-04-01T02:21:55;4.65;;;3.00;;
61903;SDS011;47857;52.270;6.804;2023-04-01T02:24:23;5.75;;;2.70;;
61903;SDS011;47857;52.270;6.804;2023-04-01T02:26:50;3.50;;;2.75;;
61903;SDS011;47857;52.270;6.804;2023-04-01T02:29:18;4.70;;;2.90;;
61903;SDS011;47857;52.270;6.804;2023-04-01T02:31:45;4.50;;;3.00;;
61903;SDS011;47857;52.270;6.804;2023-04-01T02:34:11;4.72;;;3.03;;
61903;SDS011;47857;52.270;6.804;2023-04-01T02:36:36;3.10;;;2.80;;
61903;SDS011;47857;52.270;6.804;2023-04-01T02:39:03;3.65;;;2.88;;
61903;SDS011;47857;52.270;6.804;2023-04-01T02:41:29;4.45;;;2.83;;
61903;SDS011;47857;52.270;6.804;2023-04-01T02:43:56;5.05;;;3.35;;
61903;SDS011;47857;52.270;6.804;2023-04-01T02:46:23;5.47;;;3.25;;
61903;SDS011;47857;52.270;6.804;2023-04-01T02:48:49;3.97;;;3.58;;
61903;SDS011;47857;52.270;6.804;2023-04-01T02:51:15;4.90;;;3.40;;
61903;SDS011;47857;52.270;6.804;2023-04-01T02:53:40;4.00;;;3.20;;
61903;SDS011;47857;52.270;6.804;2023-04-01T02:56:06;4.97;;;4.00;;
61903;SDS011;47857;52.270;6.804;2023-04-01T02:58:32;6.18;;;4.10;;
61903;SDS011;47857;52.270;6.804;2023-04-01T03:00:57;5.57;;;4.35;;
61903;SDS011;47857;52.270;6.804;2023-04-01T03:03:23;6.45;;;4.90;;
61903;SDS011;47857;52.270;6.804;2023-04-01T03:05:48;5.75;;;4.47;;
61903;SDS011;47857;52.270;6.804;2023-04-01T03:08:14;7.60;;;5.50;;
61903;SDS011;47857;52.270;6.804;2023-04-01T03:10:39;6.43;;;5.35;;
61903;SDS011;47857;52.270;6.804;2023-04-01T03:13:05;5.65;;;5.03;;
61903;SDS011;47857;52.270;6.804;2023-04-01T03:15:31;8.73;;;5.80;;
61903;SDS011;47857;52.270;6.804;2023-04-01T03:17:57;9.50;;;5.82;;
61903;SDS011;47857;52.270;6.804;2023-04-01T03:20:23;7.95;;;5.70;;
61903;SDS011;47857;52.270;6.804;2023-04-01T03:22:49;8.00;;;5.97;;
61903;SDS011;47857;52.270;6.804;2023-04-01T03:25:15;10.13;;;6.78;;
61903;SDS011;47857;52.270;6.804;2023-04-01T03:27:40;12.85;;;7.03;;
61903;SDS011;47857;52.270;6.804;2023-04-01T03:30:07;11.68;;;6.80;;
61903;SDS011;47857;52.270;6.804;2023-04-01T03:32:41;8.32;;;6.55;;
61903;SDS011;47857;52.270;6.804;2023-04-01T03:35:07;13.00;;;8.40;;
61903;SDS011;47857;52.270;6.804;2023-04-01T03:37:34;12.00;;;7.80;;
61903;SDS011;47857;52.270;6.804;2023-04-01T03:40:00;11.07;;;7.70;;
61903;SDS011;47857;52.270;6.804;2023-04-01T03:42:26;11.00;;;7.18;;
61903;SDS011;47857;52.270;6.804;2023-04-01T03:44:51;13.00;;;8.20;;
61903;SDS011;47857;52.270;6.804;2023-04-01T03:47:17;9.70;;;7.47;;
61903;SDS011;47857;52.270;6.804;2023-04-01T03:49:43;11.40;;;7.63;;
61903;SDS011;47857;52.270;6.804;2023-04-01T03:52:09;11.73;;;7.75;;
61903;SDS011;47857;52.270;6.804;2023-04-01T03:54:36;13.15;;;7.68;;
61903;SDS011;47857;52.270;6.804;2023-04-01T03:57:01;9.95;;;7.53;;
61903;SDS011;47857;52.270;6.804;2023-04-01T03:59:27;10.77;;;7.20;;
61903;SDS011;47857;52.270;6.804;2023-04-01T04:01:53;11.43;;;7.95;;
61903;SDS011;47857;52.270;6.804;2023-04-01T04:04:18;11.05;;;7.50;;
61903;SDS011;47857;52.270;6.804;2023-04-01T04:06:44;9.98;;;7.30;;
61903;SDS011;47857;52.270;6.804;2023-04-01T04:09:10;11.25;;;7.75;;
61903;SDS011;47857;52.270;6.804;2023-04-01T04:11:35;11.75;;;8.25;;
61903;SDS011;47857;52.270;6.804;2023-04-01T04:14:01;10.88;;;7.88;;
61903;SDS011;47857;52.270;6.804;2023-04-01T04:16:27;10.45;;;7.72;;
61903;SDS011;47857;52.270;6.804;2023-04-01T04:18:57;11.35;;;8.40;;
61903;SDS011;47857;52.270;6.804;2023-04-01T04:21:23;12.27;;;7.90;;
61903;SDS011;47857;52.270;6.804;2023-04-01T04:23:48;13.23;;;8.48;;
61903;SDS011;47857;52.270;6.804;2023-04-01T04:26:17;11.07;;;8.00;;
61903;SDS011;47857;52.270;6.804;2023-04-01T04:28:48;14.20;;;8.60;;
61903;SDS011;47857;52.270;6.804;2023-04-01T04:31:18;10.38;;;8.02;;
61903;SDS011;47857;52.270;6.804;2023-04-01T04:33:46;10.07;;;7.63;;
61903;SDS011;47857;52.270;6.804;2023-04-01T04:36:12;9.43;;;6.45;;
61903;SDS011;47857;52.270;6.804;2023-04-01T04:38:38;11.05;;;6.88;;
61903;SDS011;47857;52.270;6.804;2023-04-01T04:41:07;9.35;;;6.78;;
61903;SDS011;47857;52.270;6.804;2023-04-01T04:43:50;7.65;;;6.00;;
61903;SDS011;47857;52.270;6.804;2023-04-01T04:46:17;8.98;;;6.35;;
61903;SDS011;47857;52.270;6.804;2023-04-01T04:48:43;8.43;;;6.03;;
61903;SDS011;47857;52.270;6.804;2023-04-01T04:51:12;11.30;;;6.50;;
61903;SDS011;47857;52.270;6.804;2023-04-01T04:53:39;7.65;;;5.97;;
61903;SDS011;47857;52.270;6.804;2023-04-01T04:56:05;10.98;;;6.20;;
61903;SDS011;47857;52.270;6.804;2023-04-01T04:58:54;7.72;;;5.93;;
61903;SDS011;47857;52.270;6.804;2023-04-01T05:01:24;11.00;;;6.22;;
61903;SDS011;47857;52.270;6.804;2023-04-01T05:03:50;8.80;;;6.20;;
61903;SDS011;47857;52.270;6.804;2023-04-01T05:06:16;10.52;;;6.80;;
61903;SDS011;47857;52.270;6.804;2023-04-01T05:08:43;12.18;;;6.28;;
61903;SDS011;47857;52.270;6.804;2023-04-01T05:11:11;12.18;;;6.57;;
61903;SDS011;47857;52.270;6.804;2023-04-01T05:13:41;10.80;;;6.30;;
61903;SDS011;47857;52.270;6.804;2023-04-01T05:16:08;9.68;;;5.90;;
61903;SDS011;47857;52.270;6.804;2023-04-01T05:18:38;8.60;;;5.80;;
61903;SDS011;47857;52.270;6.804;2023-04-01T05:21:06;8.55;;;5.90;;
61903;SDS011;47857;52.270;6.804;2023-04-01T05:23:32;6.28;;;5.07;;
61903;SDS011;47857;52.270;6.804;2023-04-01T05:25:58;6.47;;;5.13;;
61903;SDS011;47857;52.270;6.804;2023-04-01T05:28:27;7.13;;;5.43;;
61903;SDS011;47857;52.270;6.804;2023-04-01T05:30:53;7.65;;;5.10;;
61903;SDS011;47857;52.270;6.804;2023-04-01T05:33:29;7.03;;;4.95;;
61903;SDS011;47857;52.270;6.804;2023-04-01T05:35:55;6.47;;;4.95;;
61903;SDS011;47857;52.270;6.804;2023-04-01T05:38:21;6.50;;;5.13;;
61903;SDS011;47857;52.270;6.804;2023-04-01T05:40:46;9.65;;;5.70;;
61903;SDS011;47857;52.270;6.804;2023-04-01T05:43:12;6.03;;;5.05;;
61903;SDS011;47857;52.270;6.804;2023-04-01T05:45:41;9.18;;;5.65;;
61903;SDS011;47857;52.270;6.804;2023-04-01T05:48:12;7.03;;;5.45;;
61903;SDS011;47857;52.270;6.804;2023-04-01T05:50:40;7.55;;;5.65;;
61903;SDS011;47857;52.270;6.804;2023-04-01T05:53:07;7.13;;;5.65;;
61903;SDS011;47857;52.270;6.804;2023-04-01T05:55:34;8.35;;;6.07;;
61903;SDS011;47857;52.270;6.804;2023-04-01T05:58:01;8.07;;;6.10;;
61903;SDS011;47857;52.270;6.804;2023-04-01T06:00:27;7.95;;;6.15;;
61903;SDS011;47857;52.270;6.804;2023-04-01T06:02:54;9.00;;;6.15;;
61903;SDS011;47857;52.270;6.804;2023-04-01T06:05:21;10.57;;;7.00;;
61903;SDS011;47857;52.270;6.804;2023-04-01T06:07:48;7.60;;;6.18;;
61903;SDS011;47857;52.270;6.804;2023-04-01T06:10:18;8.80;;;6.60;;
61903;SDS011;47857;52.270;6.804;2023-04-01T06:13:06;8.15;;;6.20;;
61903;SDS011;47857;52.270;6.804;2023-04-01T06:32:22;7.40;;;6.25;;
61903;SDS011;47857;52.270;6.804;2023-04-01T06:49:17;7.45;;;5.68;;
61903;SDS011;47857;52.270;6.804;2023-04-01T06:55:16;8.07;;;6.63;;
61903;SDS011;47857;52.270;6.804;2023-04-01T07:00:58;7.25;;;6.18;;
61903;SDS011;47857;52.270;6.804;2023-04-01T07:03:36;8.63;;;6.53;;
61903;SDS011;47857;52.270;6.804;2023-04-01T07:06:08;8.77;;;6.15;;
61903;SDS011;47857;52.270;6.804;2023-04-01T07:08:43;8.10;;;6.18;;
61903;SDS011;47857;52.270;6.804;2023-04-01T07:11:10;8.93;;;6.35;;
61903;SDS011;47857;52.270;6.804;2023-04-01T07:14:07;8.13;;;6.53;;
61903;SDS011;47857;52.270;6.804;2023-04-01T07:16:40;8.15;;;6.55;;
61903;SDS011;47857;52.270;6.804;2023-04-01T07:19:14;8.43;;;6.35;;
61903;SDS011;47857;52.270;6.804;2023-04-01T07:21:56;9.68;;;6.30;;
61903;SDS011;47857;52.270;6.804;2023-04-01T07:24:39;8.63;;;6.65;;
61903;SDS011;47857;52.270;6.804;2023-04-01T07:27:12;12.60;;;8.88;;
61903;SDS011;47857;52.270;6.804;2023-04-01T07:29:39;11.23;;;8.35;;
61903;SDS011;47857;52.270;6.804;2023-04-01T07:32:21;9.63;;;6.45;;
61903;SDS011;47857;52.270;6.804;2023-04-01T07:41:32;10.30;;;6.47;;
61903;SDS011;47857;52.270;6.804;2023-04-01T07:44:09;7.95;;;5.95;;
61903;SDS011;47857;52.270;6.804;2023-04-01T07:55:11;7.88;;;6.15;;
61903;SDS011;47857;52.270;6.804;2023-04-01T08:00:24;6.72;;;5.40;;
61903;SDS011;47857;52.270;6.804;2023-04-01T08:03:04;6.22;;;5.45;;
61903;SDS011;47857;52.270;6.804;2023-04-01T08:15:23;7.70;;;5.35;;
61903;SDS011;47857;52.270;6.804;2023-04-01T08:20:39;4.90;;;4.03;;
61903;SDS011;47857;52.270;6.804;2023-04-01T08:23:11;5.30;;;3.90;;
61903;SDS011;47857;52.270;6.804;2023-04-01T08:25:41;5.53;;;4.07;;
61903;SDS011;47857;52.270;6.804;2023-04-01T08:28:20;4.65;;;3.75;;
61903;SDS011;47857;52.270;6.804;2023-04-01T08:33:24;4.75;;;3.58;;
61903;SDS011;47857;52.270;6.804;2023-04-01T08:36:06;5.15;;;3.33;;
61903;SDS011;47857;52.270;6.804;2023-04-01T09:01:13;29.85;;;18.55;;
61903;SDS011;47857;52.270;6.804;2023-04-01T09:06:12;22.20;;;14.93;;
61903;SDS011;47857;52.270;6.804;2023-04-01T09:12:02;4.40;;;3.15;;
61903;SDS011;47857;52.270;6.804;2023-04-01T09:14:55;2.85;;;1.80;;
61903;SDS011;47857;52.270;6.804;2023-04-01T09:26:18;1.70;;;1.50;;
61903;SDS011;47857;52.270;6.804;2023-04-01T09:32:22;2.10;;;1.90;;
61903;SDS011;47857;52.270;6.804;2023-04-01T09:44:01;2.90;;;2.30;;
61903;SDS011;47857;52.270;6.804;2023-04-01T10:37:03;3.10;;;2.13;;
61903;SDS011;47857;52.270;6.804;2023-04-01T10:52:04;4.93;;;3.07;;
61903;SDS011;47857;52.270;6.804;2023-04-01T10:55:14;3.42;;;3.03;;
61903;SDS011;47857;52.270;6.804;2023-04-01T11:33:07;4.60;;;2.42;;
61903;SDS011;47857;52.270;6.804;2023-04-01T11:41:08;3.33;;;2.22;;
61903;SDS011;47857;52.270;6.804;2023-04-01T11:49:36;4.25;;;2.97;;
61903;SDS011;47857;52.270;6.804;2023-04-01T11:52:27;3.03;;;2.30;;
61903;SDS011;47857;52.270;6.804;2023-04-01T11:55:16;4.88;;;2.85;;
61903;SDS011;47857;52.270;6.804;2023-04-01T11:58:22;4.07;;;1.67;;
61903;SDS011;47857;52.270;6.804;2023-04-01T12:01:13;2.50;;;2.17;;
61903;SDS011;47857;52.270;6.804;2023-04-01T12:06:48;1.50;;;1.40;;
61903;SDS011;47857;52.270;6.804;2023-04-01T12:22:45;2.80;;;2.13;;
61903;SDS011;47857;52.270;6.804;2023-04-01T12:31:25;3.67;;;2.70;;
61903;SDS011;47857;52.270;6.804;2023-04-01T12:36:49;4.07;;;3.00;;
61903;SDS011;47857;52.270;6.804;2023-04-01T12:39:33;4.75;;;3.50;;
61903;SDS011;47857;52.270;6.804;2023-04-01T12:45:00;5.03;;;3.80;;
61903;SDS011;47857;52.270;6.804;2023-04-01T12:55:25;3.58;;;3.25;;
61903;SDS011;47857;52.270;6.804;2023-04-01T13:03:44;5.07;;;2.70;;
61903;SDS011;47857;52.270;6.804;2023-04-01T13:06:40;2.70;;;2.50;;
61903;SDS011;47857;52.270;6.804;2023-04-01T13:23:06;3.65;;;2.72;;
61903;SDS011;47857;52.270;6.804;2023-04-01T13:28:11;3.92;;;2.83;;
61903;SDS011;47857;52.270;6.804;2023-04-01T13:30:40;2.97;;;2.60;;
61903;SDS011;47857;52.270;6.804;2023-04-01T13:47:24;2.40;;;2.20;;
61903;SDS011;47857;52.270;6.804;2023-04-01T13:55:49;2.85;;;2.50;;
61903;SDS011;47857;52.270;6.804;2023-04-01T13:58:49;2.17;;;1.98;;
61903;SDS011;47857;52.270;6.804;2023-04-01T14:01:25;3.53;;;2.30;;
61903;SDS011;47857;52.270;6.804;2023-04-01T14:28:08;4.03;;;3.22;;
61903;SDS011;47857;52.270;6.804;2023-04-01T14:36:41;4.80;;;4.38;;
61903;SDS011;47857;52.270;6.804;2023-04-01T14:47:43;5.47;;;4.95;;
61903;SDS011;47857;52.270;6.804;2023-04-01T14:50:40;8.20;;;6.68;;
61903;SDS011;47857;52.270;6.804;2023-04-01T14:55:34;8.93;;;6.35;;
61903;SDS011;47857;52.270;6.804;2023-04-01T14:58:11;8.50;;;5.70;;
61903;SDS011;47857;52.270;6.804;2023-04-01T15:03:22;5.32;;;4.82;;
61903;SDS011;47857;52.270;6.804;2023-04-01T15:06:09;6.07;;;5.30;;
61903;SDS011;47857;52.270;6.804;2023-04-01T15:09:00;5.95;;;5.30;;
61903;SDS011;47857;52.270;6.804;2023-04-01T15:14:47;5.10;;;4.60;;
61903;SDS011;47857;52.270;6.804;2023-04-01T15:23:10;6.70;;;6.10;;
61903;SDS011;47857;52.270;6.804;2023-04-01T15:25:51;7.22;;;6.60;;
61903;SDS011;47857;52.270;6.804;2023-04-01T15:28:36;7.80;;;7.10;;
61903;SDS011;47857;52.270;6.804;2023-04-01T15:39:22;8.55;;;7.72;;
61903;SDS011;47857;52.270;6.804;2023-04-01T15:45:04;8.48;;;7.68;;
61903;SDS011;47857;52.270;6.804;2023-04-01T15:49:54;7.50;;;6.80;;
61903;SDS011;47857;52.270;6.804;2023-04-01T15:52:23;8.63;;;7.82;;
61903;SDS011;47857;52.270;6.804;2023-04-01T15:54:53;8.27;;;7.50;;
61903;SDS011;47857;52.270;6.804;2023-04-01T16:00:11;6.43;;;5.82;;
61903;SDS011;47857;52.270;6.804;2023-04-01T16:11:21;4.68;;;4.20;;
61903;SDS011;47857;52.270;6.804;2023-04-01T16:16:53;7.53;;;6.82;;
61903;SDS011;47857;52.270;6.804;2023-04-01T16:33:28;4.78;;;4.28;;
61903;SDS011;47857;52.270;6.804;2023-04-01T16:38:52;2.95;;;2.50;;
61903;SDS011;47857;52.270;6.804;2023-04-01T16:47:29;3.90;;;3.28;;
61903;SDS011;47857;52.270;6.804;2023-04-01T16:50:13;4.57;;;3.20;;
61903;SDS011;47857;52.270;6.804;2023-04-01T16:55:34;4.13;;;3.75;;
61903;SDS011;47857;52.270;6.804;2023-04-01T16:58:06;2.70;;;2.40;;
61903;SDS011;47857;52.270;6.804;2023-04-01T17:00:40;3.65;;;2.60;;
61903;SDS011;47857;52.270;6.804;2023-04-01T17:05:44;4.20;;;3.80;;
61903;SDS011;47857;52.270;6.804;2023-04-01T17:08:18;3.03;;;2.75;;
61903;SDS011;47857;52.270;6.804;2023-04-01T17:16:10;4.50;;;3.65;;
61903;SDS011;47857;52.270;6.804;2023-04-01T17:30:13;5.00;;;4.50;;
61903;SDS011;47857;52.270;6.804;2023-04-01T17:35:51;3.30;;;3.00;;
61903;SDS011;47857;52.270;6.804;2023-04-01T17:46:47;2.75;;;2.20;;
61903;SDS011;47857;52.270;6.804;2023-04-01T17:52:03;2.00;;;1.90;;
61903;SDS011;47857;52.270;6.804;2023-04-01T17:54:36;1.80;;;1.70;;
61903;SDS011;47857;52.270;6.804;2023-04-01T18:00:22;1.52;;;1.42;;
61903;SDS011;47857;52.270;6.804;2023-04-01T18:08:38;2.55;;;2.30;;
61903;SDS011;47857;52.270;6.804;2023-04-01T18:11:22;3.95;;;3.45;;
61903;SDS011;47857;52.270;6.804;2023-04-01T18:14:10;3.60;;;3.30;;
61903;SDS011;47857;52.270;6.804;2023-04-01T18:24:59;2.42;;;2.22;;
61903;SDS011;47857;52.270;6.804;2023-04-01T18:30:07;3.35;;;2.45;;
61903;SDS011;47857;52.270;6.804;2023-04-01T18:32:51;2.70;;;2.50;;
61903;SDS011;47857;52.270;6.804;2023-04-01T18:35:44;4.50;;;3.20;;
61903;SDS011;47857;52.270;6.804;2023-04-01T18:38:29;2.92;;;2.40;;
61903;SDS011;47857;52.270;6.804;2023-04-01T18:49:20;2.30;;;2.10;;
61903;SDS011;47857;52.270;6.804;2023-04-01T18:51:48;3.25;;;2.70;;
61903;SDS011;47857;52.270;6.804;2023-04-01T18:57:07;4.43;;;4.00;;
61903;SDS011;47857;52.270;6.804;2023-04-01T18:59:53;4.97;;;4.47;;
61903;SDS011;47857;52.270;6.804;2023-04-01T19:02:38;4.30;;;3.90;;
61903;SDS011;47857;52.270;6.804;2023-04-01T19:26:49;4.07;;;3.20;;
61903;SDS011;47857;52.270;6.804;2023-04-01T19:34:34;3.80;;;3.40;;
61903;SDS011;47857;52.270;6.804;2023-04-01T19:43:02;3.92;;;3.10;;
61903;SDS011;47857;52.270;6.804;2023-04-01T19:45:38;3.47;;;2.88;;
61903;SDS011;47857;52.270;6.804;2023-04-01T19:50:37;3.50;;;3.10;;
61903;SDS011;47857;52.270;6.804;2023-04-01T19:53:53;3.15;;;2.83;;
61903;SDS011;47857;52.270;6.804;2023-04-01T19:56:14;4.60;;;2.80;;
61903;SDS011;47857;52.270;6.804;2023-04-01T19:58:59;2.95;;;2.65;;
61903;SDS011;47857;52.270;6.804;2023-04-01T20:04:22;4.35;;;2.70;;
61903;SDS011;47857;52.270;6.804;2023-04-01T20:06:52;3.30;;;2.80;;
61903;SDS011;47857;52.270;6.804;2023-04-01T20:14:49;5.05;;;3.60;;
61903;SDS011;47857;52.270;6.804;2023-04-01T20:20:13;4.28;;;3.60;;
61903;SDS011;47857;52.270;6.804;2023-04-01T20:27:51;3.65;;;2.80;;
61903;SDS011;47857;52.270;6.804;2023-04-01T20:33:20;3.33;;;2.60;;
61903;SDS011;47857;52.270;6.804;2023-04-01T20:43:57;3.20;;;2.40;;
61903;SDS011;47857;52.270;6.804;2023-04-01T20:49:21;2.78;;;2.20;;
61903;SDS011;47857;52.270;6.804;2023-04-01T20:57:29;2.85;;;2.53;;
61903;SDS011;47857;52.270;6.804;2023-04-01T21:00:02;4.20;;;2.85;;
61903;SDS011;47857;52.270;6.804;2023-04-01T21:08:02;2.92;;;2.33;;
61903;SDS011;47857;52.270;6.804;2023-04-01T21:15:41;3.22;;;2.50;;
61903;SDS011;47857;52.270;6.804;2023-04-01T21:37:33;4.93;;;3.70;;
61903;SDS011;47857;52.270;6.804;2023-04-01T21:45:48;6.35;;;3.80;;
61903;SDS011;47857;52.270;6.804;2023-04-01T21:48:37;5.50;;;3.92;;
61903;SDS011;47857;52.270;6.804;2023-04-01T22:04:45;5.80;;;4.78;;
61903;SDS011;47857;52.270;6.804;2023-04-01T22:07:15;6.50;;;5.00;;
61903;SDS011;47857;52.270;6.804;2023-04-01T22:15:40;11.25;;;5.97;;
61903;SDS011;47857;52.270;6.804;2023-04-01T22:20:47;10.63;;;6.18;;
61903;SDS011;47857;52.270;6.804;2023-04-01T22:28:29;8.15;;;6.03;;
61903;SDS011;47857;52.270;6.804;2023-04-01T22:31:00;9.60;;;5.82;;
61903;SDS011;47857;52.270;6.804;2023-04-01T22:33:31;9.18;;;5.50;;
61903;SDS011;47857;52.270;6.804;2023-04-01T22:43:55;8.25;;;5.05;;
61903;SDS011;47857;52.270;6.804;2023-04-01T22:49:16;7.13;;;4.78;;
61903;SDS011;47857;52.270;6.804;2023-04-01T22:52:10;6.10;;;4.78;;
61903;SDS011;47857;52.270;6.804;2023-04-01T22:54:41;9.77;;;5.38;;
61903;SDS011;47857;52.270;6.804;2023-04-01T23:02:43;9.93;;;5.55;;
61903;SDS011;47857;52.270;6.804;2023-04-01T23:05:13;9.02;;;5.82;;
61903;SDS011;47857;52.270;6.804;2023-04-01T23:07:51;7.20;;;5.35;;
61903;SDS011;47857;52.270;6.804;2023-04-01T23:10:25;8.80;;;5.30;;
61903;SDS011;47857;52.270;6.804;2023-04-01T23:13:13;7.55;;;5.43;;
61903;SDS011;47857;52.270;6.804;2023-04-01T23:15:43;10.48;;;5.10;;
61903;SDS011;47857;52.270;6.804;2023-04-01T23:18:12;8.30;;;5.60;;
61903;SDS011;47857;52.270;6.804;2023-04-01T23:28:26;10.10;;;5.55;;
61903;SDS011;47857;52.270;6.804;2023-04-01T23:30:55;9.13;;;4.68;;
61903;SDS011;47857;52.270;6.804;2023-04-01T23:35:54;8.95;;;4.43;;
61903;SDS011;47857;52.270;6.804;2023-04-01T23:38:25;7.38;;;4.38;;
61903;SDS011;47857;52.270;6.804;2023-04-01T23:40:52;7.45;;;4.55;;
61903;SDS011;47857;52.270;6.804;2023-04-01T23:43:22;6.35;;;4.50;;
61903;SDS011;47857;52.270;6.804;2023-04-01T23:45:51;6.90;;;4.38;;
61903;SDS011;47857;52.270;6.804;2023-04-01T23:48:17;7.10;;;4.43;;
61903;SDS011;47857;52.270;6.804;2023-04-01T23:50:44;5.50;;;4.03;;
61903;SDS011;47857;52.270;6.804;2023-04-01T23:53:17;8.93;;;4.22;;
61903;SDS011;47857;52.270;6.804;2023-04-01T23:55:45;7.13;;;5.00;;
61903;SDS011;47857;52.270;6.804;2023-04-01T23:58:13;7.00;;;4.57;;
